Terminal Aerodrome Forecast
Issued by NWS

Home | Current Version | Previous Version | Text Only | Print | Product List | Glossary Off
Versions: 1 2 3 4 5 6 7 8 9 10 11 12 13 14 15 16 17 18 19 20 21 22 23 24 25 26 27 28 29 30 31 32 33 34 35 36 37 38 39 40
000 FTUS41 KGYX 230133 AAA TAFMHT TAF AMD KMHT 230133Z 2302/2324 31008KT P6SM SCT100 TEMPO 2302/2304 BKN100 FM230400 29008KT P6SM FEW120 FM231300 31014G24KT P6SM SKC FM231600 29018G28KT P6SM SCT060=

USA.gov is the U.S. government's official web portal to all federal, state and local government web resources and services.